createdAt,value
2022-08-14T00:00:51.373Z,23.34
2022-08-14T00:01:55.341Z,23.32
2022-08-14T00:02:52.103Z,23.31
2022-08-14T00:03:53.421Z,23.31
2022-08-14T00:04:51.314Z,23.28
2022-08-14T00:05:58.279Z,23.27
2022-08-14T00:06:52.305Z,23.25
2022-08-14T00:07:55.861Z,23.24
2022-08-14T00:08:54.298Z,23.25
2022-08-14T00:09:56.414Z,23.23
2022-08-14T00:10:53.406Z,23.21
2022-08-14T00:11:51.228Z,23.18
2022-08-14T00:12:56.635Z,23.15
2022-08-14T00:13:52.693Z,23.13
2022-08-14T00:14:54.909Z,23.13
2022-08-14T00:15:51.168Z,23.09
2022-08-14T00:16:52.168Z,23.10
2022-08-14T00:17:53.338Z,23.05
2022-08-14T00:19:06.217Z,23.05
2022-08-14T00:19:52.121Z,23.00
2022-08-14T00:20:51.162Z,22.99
2022-08-14T00:21:51.093Z,22.98
2022-08-14T00:22:57.399Z,22.94
2022-08-14T00:23:54.001Z,22.93
2022-08-14T00:24:51.043Z,22.93
2022-08-14T00:25:58.897Z,22.91
2022-08-14T00:26:52.607Z,22.85
2022-08-14T00:27:54.746Z,22.84
2022-08-14T00:28:54.010Z,22.87
2022-08-14T00:29:50.984Z,22.84
2022-08-14T00:30:51.097Z,22.81
2022-08-14T00:31:56.137Z,22.78
2022-08-14T00:32:56.291Z,22.75
2022-08-14T00:33:53.001Z,22.75
2022-08-14T00:34:51.937Z,22.73
2022-08-14T00:36:37.432Z,22.73
2022-08-14T00:36:51.930Z,22.70
2022-08-14T00:37:50.870Z,22.69
2022-08-14T00:38:52.918Z,22.70
2022-08-14T00:39:50.960Z,22.68
2022-08-14T00:40:50.872Z,22.68
2022-08-14T00:41:50.824Z,22.68
2022-08-14T00:42:55.370Z,22.66
2022-08-14T00:43:51.843Z,22.66
2022-08-14T00:44:50.770Z,22.63
2022-08-14T00:45:51.661Z,22.62
2022-08-14T00:46:50.744Z,22.62
2022-08-14T00:47:54.495Z,22.63
2022-08-14T00:48:53.791Z,22.65
2022-08-14T00:49:50.713Z,22.62
2022-08-14T00:50:50.694Z,22.62
2022-08-14T00:51:50.687Z,22.62
2022-08-14T00:52:51.034Z,22.60
2022-08-14T00:53:50.654Z,22.60
2022-08-14T00:54:50.676Z,22.62
2022-08-14T00:55:50.678Z,22.60
2022-08-14T00:56:50.610Z,22.62
2022-08-14T00:57:50.596Z,22.63
2022-08-14T00:58:50.579Z,22.63
2022-08-14T00:59:50.769Z,22.66
2022-08-14T01:00:51.422Z,22.63
2022-08-14T01:01:51.596Z,22.63
2022-08-14T01:02:53.888Z,22.63
2022-08-14T01:03:52.873Z,22.60
2022-08-14T01:04:53.910Z,22.60
2022-08-14T01:05:51.918Z,22.60
2022-08-14T01:06:50.491Z,22.57
2022-08-14T01:07:54.111Z,22.53
2022-08-14T01:08:59.554Z,22.54
2022-08-14T01:09:51.606Z,22.50
2022-08-14T01:10:50.417Z,22.45
2022-08-14T01:12:02.864Z,22.44
2022-08-14T01:12:51.426Z,22.44
2022-08-14T01:13:55.690Z,22.43
2022-08-14T01:14:51.366Z,22.43
2022-08-14T01:15:58.260Z,22.43
2022-08-14T01:16:53.062Z,22.43
2022-08-14T01:17:52.372Z,22.44
2022-08-14T01:18:57.875Z,22.43
2022-08-14T01:19:53.765Z,22.41
2022-08-14T01:20:50.299Z,22.39
2022-08-14T01:21:53.477Z,22.41
2022-08-14T01:22:50.289Z,22.39
2022-08-14T01:23:50.251Z,22.38
2022-08-14T01:24:50.960Z,22.38
2022-08-14T01:25:51.223Z,22.36
2022-08-14T01:26:50.653Z,22.33
2022-08-14T01:27:56.813Z,22.35
2022-08-14T01:28:56.516Z,22.35
2022-08-14T01:30:00.825Z,22.30
2022-08-14T01:30:51.155Z,22.28
2022-08-14T01:31:50.447Z,22.26
2022-08-14T01:32:51.418Z,22.23
2022-08-14T01:35:15.742Z,22.22
2022-08-14T01:35:18.855Z,22.20
2022-08-14T01:36:03.952Z,22.20
2022-08-14T01:36:51.077Z,22.20
2022-08-14T01:37:56.555Z,22.18
2022-08-14T01:38:51.068Z,22.20
2022-08-14T01:39:50.084Z,22.18
2022-08-14T01:40:50.069Z,22.18
2022-08-14T01:41:50.030Z,22.17
2022-08-14T01:42:50.126Z,22.17
2022-08-14T01:43:56.233Z,22.15
2022-08-14T01:44:50.961Z,22.15
2022-08-14T01:45:57.710Z,22.17
2022-08-14T01:47:00.871Z,22.15
2022-08-14T01:48:02.994Z,22.13
2022-08-14T01:48:53.922Z,22.14
2022-08-14T01:50:01.145Z,22.11
2022-08-14T01:50:50.931Z,22.10
2022-08-14T01:51:49.914Z,22.07
2022-08-14T01:52:59.224Z,22.07
2022-08-14T01:53:55.623Z,22.04
2022-08-14T01:54:57.890Z,22.06
2022-08-14T01:55:50.816Z,22.02
2022-08-14T01:56:49.797Z,22.06
2022-08-14T01:58:18.870Z,22.06
2022-08-14T01:58:58.131Z,22.04
2022-08-14T01:59:50.759Z,22.04
2022-08-14T02:00:49.759Z,22.04
2022-08-14T02:01:51.483Z,22.04
2022-08-14T02:02:52.727Z,22.02
2022-08-14T02:03:49.896Z,22.04
2022-08-14T02:04:55.337Z,22.04
2022-08-14T02:05:50.682Z,22.04
2022-08-14T02:06:49.719Z,22.06
2022-08-14T02:07:55.350Z,22.02
2022-08-14T02:08:55.039Z,22.06
2022-08-14T02:09:55.864Z,22.04
2022-08-14T02:10:50.613Z,22.04
2022-08-14T02:11:49.594Z,22.02
2022-08-14T02:12:56.945Z,22.02
2022-08-14T02:13:50.751Z,22.00
2022-08-14T02:15:00.209Z,22.00
2022-08-14T02:15:50.546Z,22.02
2022-08-14T02:16:49.616Z,22.04
2022-08-14T02:17:49.518Z,22.00
2022-08-14T02:18:49.509Z,22.02
2022-08-14T02:19:49.507Z,22.04
2022-08-14T02:20:49.477Z,22.04
2022-08-14T02:21:50.607Z,22.02
2022-08-14T02:22:49.626Z,22.02
2022-08-14T02:23:49.442Z,22.04
2022-08-14T02:24:49.420Z,22.04
2022-08-14T02:25:54.439Z,22.06
2022-08-14T02:28:18.923Z,22.08
2022-08-14T02:28:25.798Z,22.07
2022-08-14T02:28:59.552Z,22.10
2022-08-14T02:29:56.441Z,22.10
2022-08-14T02:30:52.417Z,22.08
2022-08-14T02:31:49.345Z,22.08
2022-08-14T02:32:49.435Z,22.08
2022-08-14T02:33:49.315Z,22.08
2022-08-14T02:34:49.287Z,22.10
2022-08-14T02:35:53.485Z,22.10
2022-08-14T02:37:03.453Z,22.10
2022-08-14T02:37:50.294Z,22.11
2022-08-14T02:38:49.235Z,22.11
2022-08-14T02:39:49.243Z,22.13
2022-08-14T02:40:49.207Z,22.14
2022-08-14T02:41:52.416Z,22.15
2022-08-14T02:42:54.105Z,22.15
2022-08-14T02:43:50.168Z,22.14
2022-08-14T02:44:49.691Z,22.13
2022-08-14T02:45:49.146Z,22.14
2022-08-14T02:46:49.732Z,22.14
2022-08-14T02:47:53.876Z,22.14
2022-08-14T02:49:02.020Z,22.14
2022-08-14T02:49:50.644Z,22.11
2022-08-14T02:50:51.559Z,22.10
2022-08-14T02:51:49.070Z,22.11
2022-08-14T02:52:57.103Z,22.10
2022-08-14T02:53:50.062Z,22.08
2022-08-14T02:54:49.013Z,22.07
2022-08-14T02:55:49.005Z,22.06
2022-08-14T02:57:16.703Z,22.02
2022-08-14T02:57:51.897Z,21.99
2022-08-14T02:58:49.985Z,21.99
2022-08-14T02:59:48.956Z,21.98
2022-08-14T03:00:49.006Z,22.00
2022-08-14T03:01:50.836Z,22.00
2022-08-14T03:02:58.607Z,21.99
2022-08-14T03:03:49.938Z,21.98
2022-08-14T03:04:48.896Z,21.98
2022-08-14T03:05:48.878Z,21.96
2022-08-14T03:07:06.415Z,21.93
2022-08-14T03:07:53.069Z,21.93
2022-08-14T03:08:51.881Z,21.93
2022-08-14T03:10:26.129Z,21.89
2022-08-14T03:10:50.151Z,21.88
2022-08-14T03:11:48.844Z,21.88
2022-08-14T03:12:48.802Z,21.85
2022-08-14T03:13:48.762Z,21.83
2022-08-14T03:14:48.764Z,21.82
2022-08-14T03:15:48.743Z,21.79
2022-08-14T03:16:49.747Z,21.79
2022-08-14T03:17:57.008Z,21.76
2022-08-14T03:18:52.348Z,21.72
2022-08-14T03:19:48.694Z,21.67
2022-08-14T03:20:48.665Z,21.67
2022-08-14T03:21:53.029Z,21.66
2022-08-14T03:22:50.855Z,21.66
2022-08-14T03:23:48.665Z,21.64
2022-08-14T03:24:48.617Z,21.64
2022-08-14T03:25:48.599Z,21.64
2022-08-14T03:26:48.588Z,21.66
2022-08-14T03:27:59.076Z,21.64
2022-08-14T03:28:52.668Z,21.66
2022-08-14T03:29:48.558Z,21.62
2022-08-14T03:30:48.569Z,21.62
2022-08-14T03:31:48.522Z,21.62
2022-08-14T03:32:48.510Z,21.61
2022-08-14T03:33:51.617Z,21.62
2022-08-14T03:34:55.676Z,21.62
2022-08-14T03:36:05.190Z,21.62
2022-08-14T03:37:38.258Z,21.64
2022-08-14T03:39:10.825Z,21.62
2022-08-14T03:39:11.662Z,21.64
2022-08-14T03:39:49.465Z,21.61
2022-08-14T03:40:48.425Z,21.60
2022-08-14T03:41:48.385Z,21.61
2022-08-14T03:42:48.515Z,21.61
2022-08-14T03:43:57.901Z,21.62
2022-08-14T03:45:25.270Z,21.62
2022-08-14T03:45:49.389Z,21.62
2022-08-14T03:46:54.899Z,21.62
2022-08-14T03:47:58.321Z,21.61
2022-08-14T03:48:54.125Z,21.61
2022-08-14T03:49:50.130Z,21.58
2022-08-14T03:50:48.261Z,21.60
2022-08-14T03:51:48.289Z,21.60
2022-08-14T03:52:55.963Z,21.60
2022-08-14T03:53:49.221Z,21.58
2022-08-14T03:54:52.249Z,21.57
2022-08-14T03:55:48.203Z,21.57
2022-08-14T03:56:50.152Z,21.57
2022-08-14T03:57:48.203Z,21.58
2022-08-14T03:58:48.151Z,21.58
2022-08-14T03:59:48.152Z,21.57
2022-08-14T04:00:48.205Z,21.58
2022-08-14T04:01:57.972Z,21.57
2022-08-14T04:02:53.418Z,21.58
2022-08-14T04:03:48.105Z,21.57
2022-08-14T04:04:48.075Z,21.58
2022-08-14T04:05:48.899Z,21.55
2022-08-14T04:06:48.663Z,21.55
2022-08-14T04:08:08.228Z,21.52
2022-08-14T04:09:44.140Z,21.46
2022-08-14T04:10:44.120Z,21.43
2022-08-14T04:11:44.107Z,21.43
2022-08-14T04:12:51.570Z,21.42
2022-08-14T04:13:45.088Z,21.40
2022-08-14T04:14:44.082Z,21.40
2022-08-14T04:16:01.473Z,21.40
2022-08-14T04:16:45.066Z,21.40
2022-08-14T04:17:44.023Z,21.40
2022-08-14T04:18:44.047Z,21.42
2022-08-14T04:19:44.036Z,21.40
2022-08-14T04:20:54.709Z,21.42
2022-08-14T04:22:02.269Z,21.43
2022-08-14T04:22:45.113Z,21.43
2022-08-14T04:23:43.940Z,21.46
2022-08-14T04:24:43.926Z,21.45
2022-08-14T04:25:43.913Z,21.46
2022-08-14T04:26:43.960Z,21.42
2022-08-14T04:28:01.612Z,21.42
2022-08-14T04:29:05.331Z,21.43
2022-08-14T04:29:47.868Z,21.43
2022-08-14T04:30:43.859Z,21.43
2022-08-14T04:33:02.925Z,21.43
2022-08-14T04:33:10.698Z,21.43
2022-08-14T04:33:44.810Z,21.45
2022-08-14T04:34:51.962Z,21.46
2022-08-14T04:35:55.404Z,21.45
2022-08-14T04:36:44.795Z,21.43
2022-08-14T04:37:43.782Z,21.43
2022-08-14T04:38:43.733Z,21.45
2022-08-14T04:39:46.405Z,21.46
2022-08-14T04:40:43.713Z,21.50
2022-08-14T04:41:43.705Z,21.55
2022-08-14T04:42:47.400Z,21.69
2022-08-14T04:43:44.666Z,21.80
2022-08-14T04:44:48.847Z,21.88
2022-08-14T04:45:44.720Z,21.88
2022-08-14T04:46:55.528Z,22.04
2022-08-14T04:47:46.356Z,22.29
2022-08-14T04:48:51.335Z,22.55
2022-08-14T04:49:56.912Z,22.84
2022-08-14T04:50:45.411Z,22.94
2022-08-14T04:51:46.990Z,23.10
2022-08-14T04:52:44.664Z,23.27
2022-08-14T04:53:43.804Z,23.28
2022-08-14T04:54:43.529Z,23.15
2022-08-14T04:55:43.511Z,23.03
2022-08-14T04:56:43.498Z,22.96
2022-08-14T04:57:43.510Z,22.93
2022-08-14T04:58:43.492Z,22.87
2022-08-14T04:59:43.445Z,22.80
2022-08-14T05:00:43.444Z,22.69
2022-08-14T05:01:47.744Z,22.69
2022-08-14T05:02:44.569Z,22.80
2022-08-14T05:03:43.426Z,22.87
2022-08-14T05:04:45.197Z,22.81
2022-08-14T05:05:44.376Z,22.70
2022-08-14T05:06:43.366Z,22.59
2022-08-14T05:07:54.041Z,22.55
2022-08-14T05:08:50.441Z,22.66
2022-08-14T05:09:47.923Z,22.70
2022-08-14T05:10:44.176Z,22.70
2022-08-14T05:11:44.283Z,22.63
2022-08-14T05:13:19.845Z,22.66
2022-08-14T05:14:33.084Z,22.69
2022-08-14T05:14:53.099Z,22.69
2022-08-14T05:15:44.251Z,22.70
2022-08-14T05:16:43.231Z,22.63
2022-08-14T05:17:44.072Z,22.53
2022-08-14T05:19:19.016Z,22.48
2022-08-14T05:20:33.425Z,22.48
2022-08-14T05:21:56.520Z,22.50
2022-08-14T05:21:57.613Z,22.43
2022-08-14T05:22:44.325Z,22.47
2022-08-14T05:23:43.135Z,22.68
2022-08-14T05:24:43.773Z,23.13
2022-08-14T05:25:43.105Z,23.47
2022-08-14T05:26:43.086Z,23.71
2022-08-14T05:27:43.076Z,23.73
2022-08-14T05:28:46.070Z,23.65
2022-08-14T05:29:46.078Z,23.55
2022-08-14T05:30:43.078Z,23.76
2022-08-14T05:31:43.020Z,23.77
2022-08-14T05:32:43.223Z,23.63
2022-08-14T05:33:42.989Z,23.46
2022-08-14T05:34:45.708Z,23.28
2022-08-14T05:35:42.974Z,23.09
2022-08-14T05:36:43.001Z,22.93
2022-08-14T05:37:46.138Z,22.83
2022-08-14T05:38:42.922Z,22.75
2022-08-14T05:39:43.076Z,22.72
2022-08-14T05:40:42.893Z,22.66
2022-08-14T05:41:52.901Z,22.57
2022-08-14T05:42:46.725Z,22.55
2022-08-14T05:43:44.247Z,22.70
2022-08-14T05:44:42.836Z,22.75
2022-08-14T05:45:42.866Z,22.78
2022-08-14T05:46:42.826Z,23.10
2022-08-14T05:47:42.939Z,23.44
2022-08-14T05:48:45.789Z,23.25
2022-08-14T05:49:45.800Z,23.08
2022-08-14T05:50:42.879Z,23.12
2022-08-14T05:51:42.758Z,23.62
2022-08-14T05:52:42.739Z,23.87
2022-08-14T05:53:42.718Z,23.96
2022-08-14T05:54:42.711Z,24.35
2022-08-14T05:55:44.416Z,24.86
2022-08-14T05:56:42.723Z,25.35
2022-08-14T05:57:42.661Z,25.54
2022-08-14T05:58:42.675Z,25.62
2022-08-14T05:59:42.635Z,25.98
2022-08-14T06:00:42.649Z,25.43
2022-08-14T06:01:42.673Z,25.06
2022-08-14T06:02:42.953Z,24.60
2022-08-14T06:03:42.594Z,24.55
2022-08-14T06:04:42.584Z,24.92
2022-08-14T06:05:42.565Z,25.32
2022-08-14T06:06:42.549Z,25.33
2022-08-14T06:07:42.536Z,25.04
2022-08-14T06:08:45.577Z,24.61
2022-08-14T06:09:52.313Z,24.38
2022-08-14T06:10:43.497Z,24.17
2022-08-14T06:11:42.488Z,24.10
2022-08-14T06:13:05.825Z,24.03
2022-08-14T06:13:44.897Z,24.14
2022-08-14T06:14:42.469Z,24.61
2022-08-14T06:15:42.420Z,24.86
2022-08-14T06:16:42.412Z,25.04
2022-08-14T06:17:47.023Z,24.95
2022-08-14T06:18:43.392Z,24.89
2022-08-14T06:19:42.404Z,24.96
2022-08-14T06:20:42.414Z,24.99
2022-08-14T06:21:42.342Z,25.01
2022-08-14T06:22:42.427Z,25.03
2022-08-14T06:23:42.313Z,25.06
2022-08-14T06:24:44.098Z,25.13
2022-08-14T06:25:42.314Z,24.96
2022-08-14T06:26:43.286Z,25.08
2022-08-14T06:27:43.256Z,24.99
2022-08-14T06:28:45.462Z,24.99
2022-08-14T06:29:45.248Z,25.08
2022-08-14T06:30:47.247Z,25.16
2022-08-14T06:31:43.207Z,25.33
2022-08-14T06:32:42.368Z,25.31
2022-08-14T06:35:04.125Z,25.33
2022-08-14T06:35:04.521Z,25.46
2022-08-14T06:35:43.187Z,25.59
2022-08-14T06:36:42.141Z,25.66
2022-08-14T06:37:42.121Z,25.78
2022-08-14T06:38:42.141Z,25.93
2022-08-14T06:39:44.189Z,26.07
2022-08-14T06:40:42.917Z,26.09
2022-08-14T06:41:59.514Z,26.15
2022-08-14T06:42:43.189Z,26.18
2022-08-14T06:43:45.133Z,26.22
2022-08-14T06:44:42.062Z,26.18
2022-08-14T06:45:42.174Z,26.07
2022-08-14T06:46:42.046Z,25.77
2022-08-14T06:47:43.774Z,25.66
2022-08-14T06:48:44.987Z,25.58
2022-08-14T06:49:56.012Z,25.51
2022-08-14T06:50:42.959Z,25.46
2022-08-14T06:51:44.843Z,25.33
2022-08-14T06:52:41.936Z,25.21
2022-08-14T06:53:42.919Z,25.10
2022-08-14T06:54:41.909Z,25.10
2022-08-14T06:55:56.194Z,25.17
2022-08-14T06:56:44.309Z,25.31
2022-08-14T06:57:42.862Z,25.44
2022-08-14T06:58:41.852Z,25.58
2022-08-14T06:59:41.995Z,25.73
2022-08-14T07:00:41.855Z,25.85
2022-08-14T07:01:41.839Z,25.98
2022-08-14T07:02:43.670Z,26.00
2022-08-14T07:03:41.785Z,26.03
2022-08-14T07:04:41.777Z,26.15
2022-08-14T07:05:42.110Z,26.10
2022-08-14T07:06:45.614Z,26.10
2022-08-14T07:07:42.685Z,26.31
2022-08-14T07:08:44.719Z,26.45
2022-08-14T07:09:50.992Z,26.58
2022-08-14T07:10:42.728Z,26.55
2022-08-14T07:11:41.699Z,26.38
2022-08-14T07:13:00.987Z,26.41
2022-08-14T07:13:42.649Z,26.47
2022-08-14T07:14:41.639Z,26.52
2022-08-14T07:15:42.373Z,26.60
2022-08-14T07:16:41.611Z,26.62
2022-08-14T07:17:41.649Z,26.65
2022-08-14T07:18:41.582Z,26.60
2022-08-14T07:19:41.570Z,26.70
2022-08-14T07:20:42.314Z,26.70
2022-08-14T07:21:41.544Z,26.68
2022-08-14T07:22:56.256Z,26.71
2022-08-14T07:23:44.126Z,26.70
2022-08-14T07:24:41.503Z,26.66
2022-08-14T07:25:42.230Z,26.68
2022-08-14T07:26:41.476Z,26.59
2022-08-14T07:27:42.904Z,26.56
2022-08-14T07:28:44.480Z,26.62
2022-08-14T07:29:44.450Z,26.70
2022-08-14T07:30:41.996Z,26.66
2022-08-14T07:31:42.409Z,26.62
2022-08-14T07:32:41.433Z,26.66
2022-08-14T07:33:41.709Z,26.58
2022-08-14T07:34:41.534Z,26.52
2022-08-14T07:35:57.933Z,26.48
2022-08-14T07:36:53.660Z,26.43
2022-08-14T07:37:42.393Z,26.28
2022-08-14T07:38:41.323Z,26.26
2022-08-14T07:39:43.957Z,26.25
2022-08-14T07:40:41.313Z,26.18
2022-08-14T07:41:42.330Z,26.06
2022-08-14T07:42:41.295Z,26.07
2022-08-14T07:43:41.255Z,26.09
2022-08-14T07:44:46.579Z,26.19
2022-08-14T07:45:42.265Z,26.28
2022-08-14T07:46:41.241Z,26.36
2022-08-14T07:47:41.229Z,26.40
2022-08-14T07:48:44.242Z,26.40
2022-08-14T07:49:44.217Z,26.43
2022-08-14T07:50:41.171Z,26.43
2022-08-14T07:51:41.151Z,26.43
2022-08-14T07:52:41.221Z,26.34
2022-08-14T07:53:42.120Z,26.37
2022-08-14T07:54:41.294Z,26.29
2022-08-14T07:55:41.099Z,26.15
2022-08-14T07:56:46.856Z,26.22
2022-08-14T07:57:42.073Z,26.22
2022-08-14T07:58:51.202Z,26.29
2022-08-14T07:59:44.629Z,26.28
2022-08-14T08:00:41.035Z,26.41
2022-08-14T08:01:48.291Z,26.55
2022-08-14T08:02:42.028Z,26.66
2022-08-14T08:03:41.774Z,26.83
2022-08-14T08:04:42.040Z,26.93
2022-08-14T08:05:40.975Z,26.99
2022-08-14T08:06:40.971Z,27.05
2022-08-14T08:07:40.950Z,27.03
2022-08-14T08:08:43.929Z,27.05
2022-08-14T08:09:45.813Z,27.05
2022-08-14T08:11:01.661Z,26.96
2022-08-14T08:11:41.890Z,26.93
2022-08-14T08:12:40.897Z,26.73
2022-08-14T08:13:41.623Z,26.74
2022-08-14T08:14:56.064Z,26.81
2022-08-14T08:15:41.892Z,26.93
2022-08-14T08:16:40.825Z,27.05
2022-08-14T08:17:42.648Z,27.18
2022-08-14T08:18:43.265Z,27.29
2022-08-14T08:19:41.044Z,27.37
2022-08-14T08:20:40.767Z,27.35
2022-08-14T08:21:43.745Z,27.32
2022-08-14T08:22:40.749Z,27.36
2022-08-14T08:23:43.701Z,27.37
2022-08-14T08:24:41.821Z,27.37
2022-08-14T08:25:40.728Z,27.44
2022-08-14T08:26:40.710Z,27.59
2022-08-14T08:27:44.615Z,27.67
2022-08-14T08:28:44.432Z,27.71
2022-08-14T08:29:43.674Z,27.86
2022-08-14T08:30:49.367Z,27.87
2022-08-14T08:31:44.864Z,27.96
2022-08-14T08:32:41.840Z,28.04
2022-08-14T08:33:41.362Z,28.14
2022-08-14T08:34:40.603Z,28.25
2022-08-14T08:35:47.112Z,28.26
2022-08-14T08:36:41.584Z,28.25
2022-08-14T08:37:40.547Z,28.30
2022-08-14T08:39:18.019Z,28.35
2022-08-14T08:40:01.154Z,28.12
2022-08-14T08:40:42.310Z,28.01
2022-08-14T08:41:40.487Z,28.02
2022-08-14T08:42:44.638Z,28.00
2022-08-14T08:43:46.716Z,28.00
2022-08-14T08:44:41.498Z,28.10
2022-08-14T08:45:40.440Z,28.17
2022-08-14T08:46:40.428Z,28.32
2022-08-14T08:47:40.452Z,28.41
2022-08-14T08:48:50.149Z,28.42
2022-08-14T08:49:52.928Z,28.30
2022-08-14T08:51:11.731Z,28.20
2022-08-14T08:52:15.234Z,28.07
2022-08-14T08:53:12.675Z,28.00
2022-08-14T08:54:15.374Z,27.98
2022-08-14T08:55:12.902Z,28.08
2022-08-14T08:56:11.628Z,28.05
2022-08-14T08:57:12.728Z,28.01
2022-08-14T08:58:16.032Z,28.10
2022-08-14T08:59:12.591Z,28.17
2022-08-14T09:00:24.399Z,28.33
2022-08-14T09:01:12.607Z,28.35
2022-08-14T09:02:11.558Z,28.37
2022-08-14T09:03:11.540Z,28.39
2022-08-14T09:04:14.740Z,28.44
2022-08-14T09:05:12.540Z,28.45
2022-08-14T09:06:56.893Z,28.33
2022-08-14T09:07:12.510Z,28.20
2022-08-14T09:08:26.408Z,28.10
2022-08-14T09:09:12.463Z,28.05
2022-08-14T09:10:14.493Z,28.04
2022-08-14T09:11:19.277Z,28.15
2022-08-14T09:12:14.073Z,28.25
2022-08-14T09:13:11.407Z,28.41
2022-08-14T09:14:11.382Z,28.57
2022-08-14T09:15:12.871Z,28.75
2022-08-14T09:16:19.302Z,28.91
2022-08-14T09:17:12.348Z,28.93
2022-08-14T09:18:11.327Z,29.05
2022-08-14T09:19:11.326Z,29.13
2022-08-14T09:20:12.199Z,29.17
2022-08-14T09:21:11.310Z,29.27
2022-08-14T09:22:35.531Z,29.34
2022-08-14T09:23:12.265Z,29.31
2022-08-14T09:24:29.653Z,29.19
2022-08-14T09:25:12.261Z,29.19
2022-08-14T09:26:21.342Z,29.23
2022-08-14T09:27:22.316Z,29.27
2022-08-14T09:28:12.203Z,29.27
2022-08-14T09:29:11.183Z,29.26
2022-08-14T09:30:32.529Z,29.16
2022-08-14T09:31:17.370Z,29.29
2022-08-14T09:32:59.091Z,29.29
2022-08-14T09:33:12.509Z,29.31
2022-08-14T09:34:27.020Z,29.26
2022-08-14T09:35:12.115Z,29.24
2022-08-14T09:36:11.117Z,29.19
2022-08-14T09:37:11.325Z,29.04
2022-08-14T09:38:19.454Z,28.88
2022-08-14T09:39:23.354Z,29.05
2022-08-14T09:40:16.659Z,29.23
2022-08-14T09:41:12.079Z,29.32
2022-08-14T09:42:20.542Z,29.44
2022-08-14T09:43:12.021Z,29.56
2022-08-14T09:44:11.002Z,29.61
2022-08-14T09:45:10.973Z,29.65
2022-08-14T09:46:10.962Z,29.72
2022-08-14T09:47:12.111Z,29.78
2022-08-14T09:48:10.924Z,29.81
2022-08-14T09:49:16.290Z,29.59
2022-08-14T09:50:15.053Z,29.57
2022-08-14T09:51:13.916Z,29.61
2022-08-14T09:52:33.316Z,29.60
2022-08-14T09:53:18.303Z,29.59
2022-08-14T09:54:18.037Z,29.42
2022-08-14T09:55:11.858Z,29.34
2022-08-14T09:56:10.836Z,29.39
2022-08-14T09:57:11.818Z,29.39
2022-08-14T09:58:20.094Z,29.36
2022-08-14T09:59:11.790Z,29.45
2022-08-14T10:00:29.178Z,29.56
2022-08-14T10:01:11.761Z,29.71
2022-08-14T10:02:10.786Z,29.87
2022-08-14T10:03:10.803Z,30.00
2022-08-14T10:04:17.777Z,29.84
2022-08-14T10:05:11.743Z,29.78
2022-08-14T10:06:10.694Z,29.76
2022-08-14T10:07:10.678Z,29.79
2022-08-14T10:08:15.055Z,29.72
2022-08-14T10:09:11.905Z,29.87
2022-08-14T10:10:23.504Z,29.84
2022-08-14T10:11:13.644Z,29.84
2022-08-14T10:12:18.643Z,29.90
2022-08-14T10:13:11.603Z,30.00
2022-08-14T10:14:10.598Z,30.15
2022-08-14T10:15:10.645Z,30.24
2022-08-14T10:16:25.639Z,30.15
2022-08-14T10:17:11.557Z,29.95
2022-08-14T10:18:13.381Z,30.03
2022-08-14T10:19:11.533Z,29.91
2022-08-14T10:20:39.361Z,29.75
2022-08-14T10:21:11.538Z,29.47
2022-08-14T10:23:13.415Z,29.38
2022-08-14T10:23:22.978Z,29.59
2022-08-14T10:24:11.472Z,29.59
2022-08-14T10:25:11.460Z,29.63
2022-08-14T10:26:11.995Z,29.54
2022-08-14T10:27:11.462Z,29.45
2022-08-14T10:28:39.109Z,29.53
2022-08-14T10:29:19.292Z,29.57
2022-08-14T10:30:14.464Z,29.73
2022-08-14T10:31:14.384Z,29.86
2022-08-14T10:32:17.641Z,29.97
2022-08-14T10:33:11.351Z,29.90
2022-08-14T10:34:12.867Z,29.93
2022-08-14T10:35:14.440Z,30.13
2022-08-14T10:36:26.741Z,30.23
2022-08-14T10:37:14.424Z,30.44
2022-08-14T10:38:10.308Z,30.63
2022-08-14T10:39:12.231Z,30.84
2022-08-14T10:40:38.467Z,31.00
2022-08-14T10:41:11.338Z,31.17
2022-08-14T10:42:18.104Z,31.27
2022-08-14T10:43:11.230Z,31.37
2022-08-14T10:44:21.542Z,31.36
2022-08-14T10:45:11.196Z,31.37
2022-08-14T10:47:37.206Z,31.42
2022-08-14T10:47:40.421Z,31.49
2022-08-14T10:48:24.494Z,31.40
2022-08-14T10:49:11.155Z,31.17
2022-08-14T10:50:15.022Z,31.10
2022-08-14T10:51:13.145Z,31.05
2022-08-14T10:52:10.103Z,30.96
2022-08-14T10:53:10.096Z,30.73
2022-08-14T10:54:34.978Z,30.61
2022-08-14T10:55:12.792Z,30.66
2022-08-14T10:56:21.905Z,30.78
2022-08-14T10:57:11.095Z,31.00
2022-08-14T10:58:10.060Z,31.17
2022-08-14T10:59:10.924Z,31.37
2022-08-14T11:00:10.044Z,31.44
2022-08-14T11:01:10.144Z,31.29
2022-08-14T11:02:10.173Z,31.36
2022-08-14T11:03:11.091Z,31.44
2022-08-14T11:04:10.025Z,31.47
2022-08-14T11:05:10.023Z,31.55
2022-08-14T11:06:10.072Z,31.40
2022-08-14T11:07:09.955Z,31.17
2022-08-14T11:08:12.624Z,31.10
2022-08-14T11:09:09.890Z,31.05
2022-08-14T11:10:12.938Z,31.12
2022-08-14T11:11:12.898Z,31.31
2022-08-14T11:12:34.094Z,31.44
2022-08-14T11:13:10.973Z,31.58
2022-08-14T11:14:09.849Z,31.59
2022-08-14T11:15:09.871Z,31.70
2022-08-14T11:16:09.801Z,31.77
2022-08-14T11:17:09.842Z,31.74
2022-08-14T11:18:12.031Z,31.80
2022-08-14T11:19:10.865Z,31.80
2022-08-14T11:20:16.227Z,31.84
2022-08-14T11:21:11.035Z,31.87
2022-08-14T11:22:09.727Z,31.97
2022-08-14T11:23:10.686Z,32.16
2022-08-14T11:24:50.789Z,32.27
2022-08-14T11:25:10.663Z,32.14
2022-08-14T11:26:10.330Z,31.97
2022-08-14T11:27:09.657Z,32.00
2022-08-14T11:28:10.984Z,31.93
2022-08-14T11:29:09.731Z,32.11
2022-08-14T11:30:50.077Z,32.27
2022-08-14T11:31:13.592Z,32.43
2022-08-14T11:32:09.550Z,32.52
2022-08-14T11:33:09.673Z,32.53
2022-08-14T11:34:10.418Z,32.65
2022-08-14T11:35:10.544Z,32.49
2022-08-14T11:36:17.109Z,32.33
2022-08-14T11:37:19.156Z,32.18
2022-08-14T11:38:10.492Z,32.16
2022-08-14T11:39:10.646Z,32.21
2022-08-14T11:40:09.498Z,32.03
2022-08-14T11:41:09.426Z,31.97
2022-08-14T11:42:57.191Z,31.94
2022-08-14T11:43:10.564Z,32.11
2022-08-14T11:44:17.899Z,32.27
2022-08-14T11:45:11.346Z,32.48
2022-08-14T11:46:17.784Z,32.70
2022-08-14T11:47:10.390Z,32.65
2022-08-14T11:48:13.051Z,32.52
2022-08-14T11:49:10.923Z,32.58
2022-08-14T11:50:13.266Z,32.70
2022-08-14T11:51:12.333Z,32.75
2022-08-14T11:52:09.291Z,32.77
2022-08-14T11:53:09.271Z,32.87
2022-08-14T11:54:09.283Z,33.04
2022-08-14T11:55:09.254Z,33.20
2022-08-14T11:56:11.023Z,33.19
2022-08-14T11:57:09.264Z,33.27
2022-08-14T11:58:09.248Z,33.22
2022-08-14T11:59:10.215Z,33.14
2022-08-14T12:00:09.189Z,32.80
2022-08-14T12:01:10.172Z,32.75
2022-08-14T12:02:09.159Z,32.86
2022-08-14T12:03:14.309Z,32.53
2022-08-14T12:04:21.428Z,32.16
2022-08-14T12:05:10.226Z,32.08
2022-08-14T12:06:09.565Z,32.27
2022-08-14T12:07:10.112Z,32.27
2022-08-14T12:08:11.086Z,32.01
2022-08-14T12:09:15.040Z,31.81
2022-08-14T12:10:26.766Z,31.80
2022-08-14T12:11:13.066Z,32.09
2022-08-14T12:12:09.026Z,32.26
2022-08-14T12:13:09.205Z,32.53
2022-08-14T12:14:13.314Z,32.73
2022-08-14T12:15:10.030Z,32.82
2022-08-14T12:16:15.227Z,32.51
2022-08-14T12:17:13.143Z,32.04
2022-08-14T12:18:11.228Z,32.09
2022-08-14T12:19:09.970Z,32.21
2022-08-14T12:20:09.341Z,32.40
2022-08-14T12:21:08.941Z,32.45
2022-08-14T12:22:09.921Z,32.55
2022-08-14T12:23:09.891Z,32.63
2022-08-14T12:24:08.953Z,32.80
2022-08-14T12:25:11.350Z,32.75
2022-08-14T12:26:31.547Z,32.52
2022-08-14T12:27:09.861Z,32.59
2022-08-14T12:28:08.824Z,32.59
2022-08-14T12:29:10.332Z,32.59
2022-08-14T12:30:11.830Z,32.56
2022-08-14T12:31:11.870Z,32.52
2022-08-14T12:32:12.828Z,32.18
2022-08-14T12:33:09.789Z,31.87
2022-08-14T12:34:10.131Z,31.74
2022-08-14T12:35:08.734Z,31.71
2022-08-14T12:36:08.772Z,31.71
2022-08-14T12:37:08.726Z,31.70
2022-08-14T12:38:08.695Z,31.58
2022-08-14T12:39:10.684Z,31.54
2022-08-14T12:40:08.782Z,31.56
2022-08-14T12:41:08.682Z,31.51
2022-08-14T12:42:08.676Z,31.36
2022-08-14T12:43:08.645Z,31.25
2022-08-14T12:44:09.602Z,31.25
2022-08-14T12:45:08.639Z,31.33
2022-08-14T12:46:08.590Z,31.44
2022-08-14T12:47:09.596Z,31.55
2022-08-14T12:48:21.537Z,31.61
2022-08-14T12:49:10.288Z,31.73
2022-08-14T12:50:11.620Z,31.94
2022-08-14T12:51:11.609Z,32.08
2022-08-14T12:52:17.047Z,31.85
2022-08-14T12:53:14.457Z,31.80
2022-08-14T12:54:18.562Z,31.93